Time;durP1;ratioP1;P1;durP2;ratioP2;P2;SDS_P1;SDS_P2;PMS_P1;PMS_P2;Temp;Humidity;BMP_temperature;BMP_pressure;BME280_temperature;BME280_humidity;BME280_pressure;Samples;Min_cycle;Max_cycle;Signal;HPM_P1;HPM_P2
2022/01/23 00:00:01;;;;;;;12.05;7.10;;;8.30;99.90;;;;;;5010290;28;20271;-79
2022/01/23 00:02:28;;;;;;;11.95;6.93;;;8.30;99.90;;;;;;4996852;28;20033;-77
2022/01/23 00:04:55;;;;;;;13.15;7.15;;;8.10;99.90;;;;;;5013606;28;20026;-77
2022/01/23 00:07:21;;;;;;;12.93;6.68;;;8.20;99.90;;;;;;4996898;28;20030;-77
2022/01/23 00:09:46;;;;;;;11.73;5.88;;;8.10;99.90;;;;;;5013606;28;20033;-77
2022/01/23 00:12:17;;;;;;;12.80;6.90;;;8.10;99.90;;;;;;5014276;28;20041;-78
2022/01/23 00:17:33;;;;;;;10.52;6.00;;;8.10;99.90;;;;;;5013196;28;20530;-78
2022/01/23 00:20:02;;;;;;;14.90;6.88;;;8.30;99.90;;;;;;5013687;28;20889;-78
2022/01/23 00:30:35;;;;;;;12.82;6.85;;;8.20;99.90;;;;;;5013425;28;20052;-78
2022/01/23 00:33:04;;;;;;;9.90;6.47;;;8.00;99.90;;;;;;5013344;28;20409;-77
2022/01/23 00:35:31;;;;;;;13.05;7.75;;;7.90;99.90;;;;;;5013514;28;20064;-78
2022/01/23 00:37:58;;;;;;;12.88;7.68;;;7.90;99.90;;;;;;5013474;28;20161;-79
2022/01/23 00:40:27;;;;;;;13.63;7.82;;;8.10;99.90;;;;;;4995725;28;20103;-78
2022/01/23 00:42:57;;;;;;;18.48;7.90;;;8.20;99.90;;;;;;5012847;28;20034;-78
2022/01/23 00:45:30;;;;;;;13.45;7.97;;;8.20;99.90;;;;;;4996485;28;20102;-78
2022/01/23 00:48:01;;;;;;;15.63;8.68;;;8.20;99.90;;;;;;5013341;28;20456;-78
2022/01/23 00:50:30;;;;;;;16.02;8.35;;;8.00;99.90;;;;;;5013315;28;20483;-79
2022/01/23 00:52:55;;;;;;;;;;;8.00;99.90;;;;;;5006173;28;20046;-78
2022/01/23 00:55:21;;;;;;;14.45;8.05;;;8.00;99.90;;;;;;5013561;28;20274;-78
2022/01/23 00:57:47;;;;;;;17.88;8.07;;;8.10;99.90;;;;;;5013319;28;20341;-79
2022/01/23 01:00:14;;;;;;;18.38;7.70;;;8.00;99.90;;;;;;5013608;28;20076;-80
2022/01/23 01:02:40;;;;;;;14.57;7.38;;;7.90;99.90;;;;;;4994455;28;20060;-78
2022/01/23 01:05:06;;;;;;;12.57;7.18;;;8.00;99.90;;;;;;4995622;28;20456;-78
2022/01/23 01:07:32;;;;;;;16.33;7.53;;;8.00;99.90;;;;;;5013110;28;20033;-77
2022/01/23 01:10:03;;;;;;;19.13;8.45;;;8.00;99.90;;;;;;5012957;28;20432;-77
2022/01/23 01:12:38;;;;;;;18.30;7.55;;;7.80;99.90;;;;;;5013454;28;20298;-78
2022/01/23 01:38:54;;;;;;;18.02;8.55;;;8.10;99.90;;;;;;4992934;28;20121;-78
2022/01/23 01:41:21;;;;;;;15.48;7.28;;;8.10;99.90;;;;;;4992710;28;20495;-78
2022/01/23 01:43:49;;;;;;;16.98;7.28;;;8.00;99.90;;;;;;5010106;28;20131;-78
2022/01/23 01:46:15;;;;;;;21.05;8.60;;;8.00;99.90;;;;;;4999826;28;20052;-78
2022/01/23 01:48:41;;;;;;;16.23;7.18;;;8.10;99.90;;;;;;5025905;28;20022;-80
2022/01/23 01:51:12;;;;;;;11.23;7.20;;;8.10;99.90;;;;;;5011107;28;20124;-78
2022/01/23 01:53:37;;;;;;;19.33;7.57;;;8.00;99.90;;;;;;5023840;28;20046;-79
2022/01/23 01:56:06;;;;;;;12.88;7.63;;;8.00;99.90;;;;;;5017828;28;20034;-78
2022/01/23 02:08:22;;;;;;;15.18;7.00;;;8.10;99.90;;;;;;5019064;28;20463;-78
2022/01/23 02:09:43;;;;;;;14.80;7.80;;;8.10;99.90;;;;;;5016753;28;20040;-79
2022/01/23 02:23:30;;;;;;;12.93;7.47;;;7.80;99.90;;;;;;5010308;28;20323;-78
2022/01/23 02:53:34;;;;;;;11.05;6.53;;;8.10;99.90;;;;;;5011494;28;20038;-76
2022/01/23 02:56:03;;;;;;;16.17;7.40;;;8.00;99.90;;;;;;5011207;28;20034;-79
2022/01/23 02:58:35;;;;;;;12.60;6.68;;;8.00;99.90;;;;;;4993106;28;20459;-79
2022/01/23 03:03:28;;;;;;;13.10;7.20;;;8.00;99.90;;;;;;5011631;28;20483;-78
2022/01/23 03:32:44;;;;;;;15.95;7.47;;;7.90;99.90;;;;;;5009889;28;20144;-78
2022/01/23 03:35:09;;;;;;;13.73;7.10;;;7.90;99.90;;;;;;4996354;28;20088;-78
2022/01/23 03:37:36;;;;;;;18.80;7.75;;;7.90;99.90;;;;;;4997839;28;20034;-78
2022/01/23 03:40:02;;;;;;;11.13;7.22;;;7.80;99.90;;;;;;4997151;28;20637;-78
2022/01/23 03:42:29;;;;;;;13.25;6.97;;;7.80;99.90;;;;;;5014655;28;20021;-78
2022/01/23 03:45:14;;;;;;;15.02;7.32;;;7.80;99.90;;;;;;5013662;28;20042;-78
2022/01/23 03:47:43;;;;;;;20.60;7.60;;;7.90;99.90;;;;;;5014166;28;20120;-78
2022/01/23 03:50:11;;;;;;;13.65;7.18;;;7.80;99.90;;;;;;5014144;28;20125;-78
2022/01/23 03:52:37;;;;;;;;;;;7.80;99.90;;;;;;5014682;28;20100;-79
2022/01/23 03:55:05;;;;;;;17.42;7.05;;;7.80;99.90;;;;;;5013089;28;20274;-77
2022/01/23 03:57:31;;;;;;;16.65;8.30;;;7.80;99.90;;;;;;4997000;28;20087;-78
2022/01/23 03:59:56;;;;;;;14.48;7.97;;;7.80;99.90;;;;;;4996613;28;20041;-78
2022/01/23 04:02:22;;;;;;;18.83;8.18;;;7.80;99.90;;;;;;5014100;28;20079;-78
2022/01/23 04:04:48;;;;;;;16.58;7.30;;;7.90;99.90;;;;;;5013255;28;20396;-78
2022/01/23 04:07:22;;;;;;;12.18;7.03;;;7.90;99.90;;;;;;4996317;28;20296;-78
2022/01/23 04:09:48;;;;;;;11.65;6.97;;;7.90;99.90;;;;;;5013781;28;20037;-79
2022/01/23 04:20:47;;;;;;;13.15;6.97;;;7.90;99.90;;;;;;5013394;28;20053;-76
2022/01/23 04:59:35;;;;;;;17.75;7.57;;;7.90;99.90;;;;;;5013328;28;20068;-77
2022/01/23 05:04:23;;;;;;;12.82;6.57;;;7.90;99.90;;;;;;5012482;28;20041;-77
2022/01/23 05:07:01;;;;;;;10.27;6.85;;;7.80;99.90;;;;;;5012858;28;20367;-78
2022/01/23 05:09:28;;;;;;;12.07;6.05;;;7.80;99.90;;;;;;4996035;28;20033;-77
2022/01/23 05:12:01;;;;;;;12.80;6.72;;;7.80;99.90;;;;;;5012795;28;20038;-77
2022/01/23 05:14:32;;;;;;;10.52;5.75;;;7.80;99.90;;;;;;5012197;28;20606;-78
2022/01/23 05:16:59;;;;;;;12.30;5.93;;;7.70;99.90;;;;;;5012897;28;20030;-77
2022/01/23 05:19:25;;;;;;;8.73;5.97;;;7.80;99.90;;;;;;5012091;28;20045;-78
2022/01/23 05:24:40;;;;;;;9.60;6.22;;;7.80;99.90;;;;;;5012422;28;20100;-77
2022/01/23 05:27:08;;;;;;;10.15;5.97;;;7.90;99.90;;;;;;5013285;28;20096;-77
2022/01/23 05:29:35;;;;;;;;;;;7.90;99.90;;;;;;5012449;28;20030;-77
2022/01/23 05:32:02;;;;;;;9.85;6.10;;;8.00;99.90;;;;;;5012379;28;20008;-77
2022/01/23 05:34:27;;;;;;;9.68;6.35;;;8.00;99.90;;;;;;4994738;28;20056;-76
2022/01/23 05:36:53;;;;;;;11.32;5.88;;;7.80;99.90;;;;;;5011595;28;20038;-76
2022/01/23 05:39:21;;;;;;;15.68;6.15;;;7.80;99.90;;;;;;5011527;28;20378;-77
2022/01/23 05:41:52;;;;;;;11.10;5.57;;;7.80;99.90;;;;;;5012236;28;20159;-77
2022/01/23 05:44:18;;;;;;;11.68;5.80;;;7.80;99.90;;;;;;4994881;28;20026;-77
2022/01/23 05:46:44;;;;;;;10.82;6.07;;;7.80;99.90;;;;;;4994844;28;20030;-76
2022/01/23 05:49:10;;;;;;;9.98;5.55;;;7.80;99.90;;;;;;4994014;28;20044;-77
2022/01/23 05:51:35;;;;;;;15.00;5.88;;;7.70;99.90;;;;;;5011753;28;20097;-77
2022/01/23 05:54:01;;;;;;;10.48;5.60;;;7.70;99.90;;;;;;4993583;28;20026;-78
2022/01/23 05:56:27;;;;;;;7.68;5.30;;;7.70;99.90;;;;;;5011778;28;20033;-78
2022/01/23 05:58:53;;;;;;;9.98;6.07;;;7.70;99.90;;;;;;4993382;28;20454;-78
2022/01/23 06:01:19;;;;;;;8.80;5.45;;;7.70;99.90;;;;;;4994272;28;20026;-77
2022/01/23 06:03:45;;;;;;;8.88;6.15;;;7.70;99.90;;;;;;4993647;28;20040;-77
2022/01/23 06:06:11;;;;;;;9.23;5.55;;;7.70;99.90;;;;;;5012060;28;20343;-77
2022/01/23 06:08:36;;;;;;;8.90;5.50;;;7.70;99.90;;;;;;4994271;28;20528;-78
2022/01/23 06:11:02;;;;;;;15.40;5.60;;;7.80;99.90;;;;;;4994471;28;20626;-77
2022/01/23 06:13:28;;;;;;;11.07;5.38;;;7.90;99.90;;;;;;4994239;28;20030;-76
2022/01/23 06:15:54;;;;;;;8.93;5.25;;;7.80;99.90;;;;;;4993616;28;20141;-77
2022/01/23 06:18:20;;;;;;;9.52;5.55;;;7.80;99.90;;;;;;4994468;28;20022;-78
2022/01/23 06:20:46;;;;;;;10.25;5.60;;;7.80;99.90;;;;;;5010673;28;20096;-77
2022/01/23 06:23:13;;;;;;;11.68;5.93;;;7.70;99.90;;;;;;5011332;28;20026;-78
2022/01/23 06:25:46;;;;;;;11.07;5.82;;;7.70;99.90;;;;;;5011113;28;20046;-78
2022/01/23 06:28:21;;;;;;;9.65;6.13;;;7.80;99.90;;;;;;5011282;28;20034;-77
2022/01/23 06:30:47;;;;;;;9.25;5.57;;;7.90;99.90;;;;;;4993475;28;20129;-77
2022/01/23 06:33:12;;;;;;;13.30;6.40;;;7.80;99.90;;;;;;4994185;28;20417;-78
2022/01/23 06:35:38;;;;;;;11.38;6.15;;;7.80;99.90;;;;;;4992845;28;20535;-76
2022/01/23 06:38:04;;;;;;;10.73;5.57;;;7.80;99.90;;;;;;5011412;28;20029;-78
2022/01/23 06:40:29;;;;;;;10.77;5.07;;;7.80;99.90;;;;;;5010931;28;20034;-77
2022/01/23 06:42:55;;;;;;;9.82;5.40;;;7.70;99.90;;;;;;4993863;28;20034;-77
2022/01/23 06:45:20;;;;;;;11.05;5.35;;;7.80;99.90;;;;;;5010845;28;20488;-77
2022/01/23 06:47:46;;;;;;;10.52;5.22;;;7.70;99.90;;;;;;5011062;28;20477;-78
2022/01/23 06:50:12;;;;;;;11.90;5.07;;;7.60;99.90;;;;;;5010394;28;20411;-79
2022/01/23 06:52:37;;;;;;;10.52;5.60;;;7.70;99.90;;;;;;5010930;28;20041;-77
2022/01/23 06:55:03;;;;;;;9.68;5.43;;;7.80;99.90;;;;;;4993569;28;20044;-78
2022/01/23 06:57:29;;;;;;;9.38;4.85;;;7.80;99.90;;;;;;5011171;28;20037;-77
2022/01/23 06:59:54;;;;;;;8.10;4.50;;;7.80;99.90;;;;;;4992516;28;20049;-78
2022/01/23 07:02:20;;;;;;;9.45;4.30;;;7.90;99.90;;;;;;4991435;28;20030;-78
2022/01/23 07:04:45;;;;;;;13.32;5.15;;;7.80;99.90;;;;;;5011027;28;20034;-78
2022/01/23 07:07:11;;;;;;;12.52;4.50;;;7.80;99.90;;;;;;4993407;28;20026;-78
2022/01/23 07:09:36;;;;;;;18.10;7.70;;;7.80;99.90;;;;;;5010269;28;20464;-79
2022/01/23 07:12:02;;;;;;;17.55;5.82;;;7.90;99.90;;;;;;4993371;28;20037;-78
2022/01/23 07:14:28;;;;;;;11.40;5.93;;;7.90;99.90;;;;;;5010695;28;20375;-78
2022/01/23 07:16:54;;;;;;;8.15;4.97;;;7.90;99.90;;;;;;5010657;28;20097;-78
2022/01/23 07:19:19;;;;;;;8.52;5.32;;;7.80;99.90;;;;;;5009425;28;20120;-78
2022/01/23 07:21:46;;;;;;;11.57;5.40;;;7.80;99.90;;;;;;4992560;28;20033;-78
2022/01/23 07:24:12;;;;;;;16.30;5.72;;;7.70;99.90;;;;;;5009850;28;20113;-78
2022/01/23 07:26:37;;;;;;;13.85;6.30;;;7.80;99.90;;;;;;5010311;28;20129;-77
2022/01/23 07:29:05;;;;;;;8.85;5.40;;;7.80;99.90;;;;;;4992871;28;20100;-78
2022/01/23 07:31:54;;;;;;;;;;;;;;;;;;;;;
2022/01/23 07:33:59;;;;;;;11.68;4.75;;;7.70;99.90;;;;;;5010681;28;20530;-78
2022/01/23 07:36:25;;;;;;;8.85;5.32;;;7.70;99.90;;;;;;5011190;28;20490;-77
2022/01/23 07:38:50;;;;;;;13.13;5.53;;;7.80;99.90;;;;;;5009940;28;20062;-77
2022/01/23 07:41:16;;;;;;;18.27;5.75;;;7.70;99.90;;;;;;4992714;28;20030;-78
2022/01/23 07:43:41;;;;;;;8.65;5.25;;;7.70;99.90;;;;;;5020928;28;20061;-78
2022/01/23 07:46:07;;;;;;;8.23;5.13;;;7.80;99.90;;;;;;5019536;28;20030;-76
2022/01/23 07:48:32;;;;;;;9.20;5.18;;;7.90;99.90;;;;;;5009783;28;20176;-78
2022/01/23 07:50:58;;;;;;;11.90;5.32;;;7.90;99.90;;;;;;5010254;28;20030;-77
2022/01/23 07:53:24;;;;;;;9.20;4.80;;;7.80;99.90;;;;;;5010644;28;20080;-77
2022/01/23 07:55:49;;;;;;;9.98;4.90;;;7.90;99.90;;;;;;5010733;28;20415;-77
2022/01/23 07:58:15;;;;;;;8.95;4.95;;;7.70;99.90;;;;;;5010018;28;20030;-79
2022/01/23 08:00:41;;;;;;;10.90;4.57;;;7.90;99.90;;;;;;4991809;28;20030;-81
2022/01/23 08:03:08;;;;;;;9.57;5.10;;;7.80;99.90;;;;;;5003977;28;20034;-79
2022/01/23 08:05:34;;;;;;;11.40;5.07;;;8.00;99.90;;;;;;4992638;28;20544;-77
2022/01/23 08:08:00;;;;;;;11.93;5.18;;;7.90;99.90;;;;;;5008845;28;20121;-77
2022/01/23 08:10:25;;;;;;;10.38;4.80;;;7.80;99.90;;;;;;4992234;28;20032;-77
2022/01/23 08:12:51;;;;;;;10.30;5.50;;;7.90;99.90;;;;;;4991191;28;20117;-78
2022/01/23 08:15:17;;;;;;;8.20;5.07;;;7.90;99.90;;;;;;5010632;28;20361;-79
2022/01/23 08:17:42;;;;;;;8.23;4.93;;;7.80;99.90;;;;;;5010161;28;20458;-79
2022/01/23 08:20:08;;;;;;;11.05;5.18;;;7.80;99.90;;;;;;5010694;28;20034;-77
2022/01/23 08:22:34;;;;;;;8.60;5.13;;;7.90;99.90;;;;;;5014013;28;20042;-76
2022/01/23 08:25:02;;;;;;;9.93;4.93;;;8.00;99.90;;;;;;4995918;28;20531;-78
2022/01/23 08:27:28;;;;;;;10.57;5.65;;;7.90;99.90;;;;;;4997203;28;20034;-77
2022/01/23 08:29:54;;;;;;;8.82;5.43;;;8.00;99.90;;;;;;5018931;28;20029;-78
2022/01/23 08:32:20;;;;;;;8.57;4.93;;;8.00;99.90;;;;;;5016140;28;20038;-79
2022/01/23 08:34:46;;;;;;;7.72;5.00;;;8.10;99.90;;;;;;5013677;28;20037;-77
2022/01/23 08:37:12;;;;;;;16.27;6.50;;;8.10;99.90;;;;;;5012911;28;20368;-77
2022/01/23 08:39:39;;;;;;;9.23;4.97;;;8.10;99.90;;;;;;5013416;28;20447;-76
2022/01/23 08:42:16;;;;;;;9.13;6.18;;;8.30;99.90;;;;;;4996869;28;20026;-79
2022/01/23 08:44:43;;;;;;;11.93;6.43;;;8.30;99.90;;;;;;5014056;28;20030;-77
2022/01/23 08:47:09;;;;;;;11.20;6.20;;;8.30;99.90;;;;;;4995637;28;20030;-76
2022/01/23 08:49:39;;;;;;;13.25;5.65;;;8.20;99.90;;;;;;4996500;28;20060;-73
2022/01/23 08:52:05;;;;;;;9.23;6.22;;;8.30;99.90;;;;;;4998387;28;20060;-78
2022/01/23 08:54:31;;;;;;;12.57;6.93;;;8.20;99.90;;;;;;5013863;28;20041;-79
2022/01/23 08:56:56;;;;;;;16.15;7.55;;;8.20;99.90;;;;;;5009271;28;20037;-81
2022/01/23 08:59:24;;;;;;;15.40;6.85;;;8.30;99.90;;;;;;5012837;28;20045;-78
2022/01/23 09:01:50;;;;;;;15.50;6.35;;;8.10;99.90;;;;;;5012366;28;20605;-75
2022/01/23 09:04:16;;;;;;;11.00;6.57;;;8.20;99.90;;;;;;4992973;28;20616;-75
2022/01/23 09:06:43;;;;;;;13.05;6.85;;;8.30;99.90;;;;;;5012170;28;20022;-77
2022/01/23 09:09:15;;;;;;;14.63;7.15;;;8.30;99.90;;;;;;4997943;28;20044;-79
2022/01/23 09:12:05;;;;;;;13.05;6.38;;;8.30;99.90;;;;;;5014353;28;20064;-74
2022/01/23 09:14:31;;;;;;;10.32;6.70;;;8.30;99.90;;;;;;5012743;28;20482;-78
2022/01/23 09:16:57;;;;;;;14.20;6.25;;;8.50;99.90;;;;;;4995624;28;20037;-74
2022/01/23 09:19:24;;;;;;;11.85;6.82;;;8.60;99.90;;;;;;5011436;28;20041;-73
2022/01/23 09:21:51;;;;;;;11.80;7.28;;;8.60;99.90;;;;;;5012196;28;20034;-74
2022/01/23 09:24:18;;;;;;;16.17;8.20;;;8.50;99.90;;;;;;5012459;28;20133;-74
2022/01/23 09:26:51;;;;;;;17.50;7.65;;;8.60;99.90;;;;;;5011227;28;20522;-76
2022/01/23 09:29:25;;;;;;;12.60;7.72;;;8.60;99.90;;;;;;5010878;28;20084;-75
2022/01/23 09:31:50;;;;;;;9.93;6.75;;;8.60;99.90;;;;;;4994896;28;20038;-76
2022/01/23 09:34:22;;;;;;;12.77;7.35;;;8.50;99.90;;;;;;5012014;28;20084;-75
2022/01/23 09:36:48;;;;;;;13.80;7.60;;;8.60;99.90;;;;;;4994847;28;20125;-74
2022/01/23 09:39:17;;;;;;;15.02;7.30;;;8.40;99.90;;;;;;5012121;28;20113;-74
2022/01/23 09:41:46;;;;;;;12.73;7.32;;;8.40;99.90;;;;;;5011674;28;20038;-78
2022/01/23 09:44:15;;;;;;;14.18;7.47;;;8.50;99.90;;;;;;5009402;28;20076;-76
2022/01/23 09:46:42;;;;;;;14.77;7.88;;;8.50;99.90;;;;;;4996987;28;20050;-76
2022/01/23 09:49:09;;;;;;;13.10;7.43;;;8.50;99.90;;;;;;5002179;28;20025;-76
2022/01/23 09:51:41;;;;;;;17.17;9.40;;;8.60;99.90;;;;;;5011571;28;20037;-80
2022/01/23 09:54:09;;;;;;;15.40;7.97;;;8.60;99.90;;;;;;4994728;28;20030;-76
2022/01/23 09:56:36;;;;;;;;;;;8.50;99.90;;;;;;5011312;28;20026;-76
2022/01/23 09:59:02;;;;;;;15.65;8.35;;;8.60;99.90;;;;;;5011479;28;19960;-73
2022/01/23 10:01:28;;;;;;;12.88;7.75;;;8.60;99.90;;;;;;5011808;28;20030;-75
2022/01/23 10:03:53;;;;;;;13.80;8.10;;;8.60;99.90;;;;;;4991965;28;20025;-77
2022/01/23 10:06:19;;;;;;;14.88;8.43;;;8.50;99.90;;;;;;5011445;28;20037;-75
2022/01/23 10:08:46;;;;;;;20.35;7.70;;;8.60;99.90;;;;;;5011226;28;20030;-75
2022/01/23 10:11:14;;;;;;;15.38;7.60;;;8.80;99.90;;;;;;4993522;28;20129;-75
2022/01/23 10:13:41;;;;;;;10.25;6.75;;;9.00;99.90;;;;;;5010355;28;20034;-74
2022/01/23 10:16:06;;;;;;;12.98;7.05;;;8.90;99.90;;;;;;5011703;28;20475;-75
2022/01/23 10:18:32;;;;;;;14.50;7.35;;;9.10;99.90;;;;;;5011859;28;20026;-81
2022/01/23 10:20:58;;;;;;;20.40;8.45;;;9.00;99.90;;;;;;4994291;28;20026;-80
2022/01/23 10:23:24;;;;;;;12.82;7.43;;;9.00;99.90;;;;;;4993008;28;20081;-81
2022/01/23 10:25:52;;;;;;;18.42;8.45;;;9.00;99.90;;;;;;5011303;28;20088;-84
2022/01/23 10:28:21;;;;;;;16.23;8.03;;;9.00;99.90;;;;;;5011278;28;20034;-76
2022/01/23 10:30:52;;;;;;;18.25;10.20;;;9.00;99.90;;;;;;5010694;28;20255;-76
2022/01/23 10:33:27;;;;;;;16.05;8.75;;;8.90;99.90;;;;;;5012028;28;20344;-80
2022/01/23 10:35:54;;;;;;;14.20;7.80;;;8.90;99.90;;;;;;5010415;28;20041;-78
2022/01/23 10:38:22;;;;;;;12.82;7.47;;;8.90;99.90;;;;;;5010402;28;20041;-77
2022/01/23 10:41:01;;;;;;;14.80;7.97;;;8.90;99.90;;;;;;4993463;28;20096;-76
2022/01/23 10:49:00;;;;;;;15.80;8.45;;;9.10;99.90;;;;;;5011438;28;20065;-75
2022/01/23 10:51:37;;;;;;;21.85;10.40;;;9.10;99.90;;;;;;5010982;28;20116;-76
2022/01/23 10:54:11;;;;;;;16.33;7.53;;;9.20;99.90;;;;;;5009970;28;20423;-76
2022/01/23 10:56:53;;;;;;;15.90;8.15;;;9.20;99.90;;;;;;4993967;28;20026;-77
2022/01/23 10:59:19;;;;;;;15.20;9.00;;;9.10;99.90;;;;;;5010802;28;20038;-75
2022/01/23 11:02:07;;;;;;;15.15;8.95;;;9.20;99.90;;;;;;5010532;28;20044;-77
2022/01/23 11:04:55;;;;;;;;;;;9.00;99.90;;;;;;5007837;28;20049;-75
2022/01/23 11:07:21;;;;;;;15.77;8.73;;;9.00;99.90;;;;;;4997009;28;20020;-76
2022/01/23 11:09:54;;;;;;;18.80;8.77;;;9.10;99.90;;;;;;5010361;28;20030;-78
2022/01/23 11:12:43;;;;;;;14.95;9.10;;;9.00;99.90;;;;;;4993770;28;20063;-77
2022/01/23 11:17:59;;;;;;;20.63;10.57;;;9.20;99.90;;;;;;5010962;28;20129;-76
2022/01/23 11:20:48;;;;;;;18.60;9.35;;;9.20;99.90;;;;;;5006353;28;20125;-79
2022/01/23 11:23:22;;;;;;;18.02;10.13;;;9.20;99.90;;;;;;4986670;28;20034;-77
2022/01/23 11:25:56;;;;;;;17.02;9.18;;;9.10;99.90;;;;;;5009057;28;20127;-76
2022/01/23 11:28:38;;;;;;;17.98;9.52;;;9.00;99.90;;;;;;4985150;28;20034;-78
2022/01/23 11:31:10;;;;;;;14.73;9.20;;;9.00;99.90;;;;;;4976193;28;20038;-77
2022/01/23 11:33:36;;;;;;;15.30;10.35;;;8.90;99.90;;;;;;4973966;28;20026;-77
2022/01/23 11:36:03;;;;;;;16.90;10.20;;;8.90;99.90;;;;;;4974189;28;20081;-78
2022/01/23 11:38:29;;;;;;;16.88;10.30;;;9.00;99.90;;;;;;4991128;28;20030;-77
2022/01/23 11:55:46;;;;;;;16.33;9.48;;;9.30;99.90;;;;;;4992578;28;20379;-75
2022/01/23 11:58:34;;;;;;;17.90;9.57;;;9.30;99.90;;;;;;4896372;29;20062;-76
2022/01/23 12:01:26;;;;;;;14.68;9.90;;;9.10;99.90;;;;;;4990714;28;20213;-77
2022/01/23 12:04:07;;;;;;;16.77;10.10;;;9.10;99.90;;;;;;4986147;28;20846;-75
2022/01/23 12:06:39;;;;;;;16.55;10.30;;;9.30;99.90;;;;;;4982412;28;20057;-75
2022/01/23 12:09:22;;;;;;;21.65;10.32;;;9.40;99.90;;;;;;4977070;28;20145;-75
2022/01/23 12:12:21;;;;;;;17.38;9.55;;;9.30;99.90;;;;;;4981164;28;20035;-76
2022/01/23 12:17:22;;;;;;;20.38;11.07;;;9.40;99.90;;;;;;4986059;28;20034;-80
2022/01/23 12:19:53;;;;;;;110.13;17.55;;;9.60;99.90;;;;;;4986747;28;20100;-75
2022/01/23 12:22:36;;;;;;;27.20;10.80;;;9.40;99.90;;;;;;5000363;28;20117;-75
2022/01/23 12:25:08;;;;;;;15.23;9.40;;;9.60;99.90;;;;;;4994522;28;20045;-73
2022/01/23 12:27:34;;;;;;;16.20;9.80;;;9.50;99.90;;;;;;4976879;28;20042;-73
2022/01/23 12:30:15;;;;;;;21.25;10.35;;;9.40;99.90;;;;;;4994876;28;20427;-77
2022/01/23 12:32:41;;;;;;;14.55;9.80;;;9.40;99.90;;;;;;4993494;28;20039;-78
2022/01/23 12:35:10;;;;;;;16.50;9.40;;;9.60;99.90;;;;;;4976643;28;20031;-80
2022/01/23 12:38:02;;;;;;;18.98;10.45;;;9.60;99.90;;;;;;4994260;28;20113;-79
2022/01/23 12:40:41;;;;;;;12.98;7.82;;;9.60;99.90;;;;;;4977028;28;20125;-80
2022/01/23 12:43:11;;;;;;;18.38;8.38;;;9.50;99.90;;;;;;4994340;28;20030;-80
2022/01/23 12:45:45;;;;;;;11.70;7.80;;;9.50;99.90;;;;;;4977512;28;20072;-79
2022/01/23 12:48:38;;;;;;;12.05;7.65;;;9.40;99.90;;;;;;4976829;28;20027;-82
2022/01/23 12:51:07;;;;;;;12.63;7.40;;;9.50;99.90;;;;;;4963929;28;20050;-82
2022/01/23 12:53:45;;;;;;;12.57;7.38;;;9.40;99.90;;;;;;4977358;28;20030;-80
2022/01/23 12:56:13;;;;;;;;;;;9.50;99.90;;;;;;4994190;28;20023;-78
2022/01/23 12:58:40;;;;;;;11.50;7.40;;;9.50;99.90;;;;;;4980030;28;19953;-77
2022/01/23 13:01:20;;;;;;;14.10;6.90;;;9.50;99.90;;;;;;4996725;28;20027;-81
2022/01/23 13:03:52;;;;;;;13.43;7.38;;;9.40;99.90;;;;;;4975990;28;20275;-76
2022/01/23 13:06:32;;;;;;;10.68;6.75;;;9.40;99.90;;;;;;4976025;28;20408;-77
2022/01/23 13:09:51;;;;;;;10.05;6.47;;;9.40;99.90;;;;;;4976488;28;20038;-78
2022/01/23 13:31:10;;;;;;;11.88;6.13;;;9.50;99.90;;;;;;4958625;28;20459;-79
2022/01/23 13:33:39;;;;;;;10.30;5.95;;;9.60;99.90;;;;;;4993144;28;20040;-76
2022/01/23 13:36:09;;;;;;;14.68;6.22;;;9.60;99.90;;;;;;4995875;28;20025;-77
2022/01/23 13:38:36;;;;;;;11.25;5.88;;;9.60;99.90;;;;;;5012041;28;20042;-77
2022/01/23 13:41:13;;;;;;;9.10;5.72;;;9.70;99.90;;;;;;4994040;28;20041;-76
2022/01/23 13:52:23;;;;;;;10.48;5.53;;;9.70;99.90;;;;;;5013108;28;20033;-81
2022/01/23 13:58:07;;;;;;;12.23;6.95;;;9.60;99.90;;;;;;4993369;28;20034;-77
2022/01/23 14:00:32;;;;;;;8.23;5.30;;;9.50;99.90;;;;;;5007894;28;20108;-76
2022/01/23 14:02:58;;;;;;;10.48;6.60;;;9.40;99.90;;;;;;5011247;28;20472;-73
2022/01/23 14:05:32;;;;;;;10.20;5.95;;;9.60;99.90;;;;;;5011745;28;20126;-76
2022/01/23 14:08:00;;;;;;;11.13;6.97;;;9.60;99.90;;;;;;4994693;28;20096;-77
2022/01/23 14:10:33;;;;;;;;;;;9.50;99.90;;;;;;4994826;28;20121;-78
2022/01/23 14:13:15;;;;;;;9.70;5.55;;;9.60;99.90;;;;;;4994307;28;19920;-79
2022/01/23 14:15:46;;;;;;;7.65;4.95;;;9.70;99.90;;;;;;4994197;28;20091;-77
2022/01/23 14:18:17;;;;;;;11.90;5.80;;;9.70;99.90;;;;;;5011353;28;20039;-76
2022/01/23 14:20:58;;;;;;;7.95;4.75;;;9.70;99.90;;;;;;4994301;28;20109;-76
2022/01/23 14:23:24;;;;;;;9.48;5.28;;;9.60;99.90;;;;;;4994816;28;20040;-76
2022/01/23 14:25:52;;;;;;;6.20;4.28;;;9.70;99.90;;;;;;5009303;28;20125;-78
2022/01/23 14:28:21;;;;;;;6.97;4.93;;;9.60;99.90;;;;;;5011968;28;20421;-77
2022/01/23 14:30:55;;;;;;;11.63;5.18;;;9.60;99.90;;;;;;5011622;28;20109;-79
2022/01/23 14:33:28;;;;;;;8.98;5.18;;;9.60;99.90;;;;;;4994181;28;20109;-79
2022/01/23 14:35:55;;;;;;;11.85;5.40;;;9.60;99.90;;;;;;5011103;28;20058;-77
2022/01/23 14:38:28;;;;;;;7.80;5.07;;;9.60;99.90;;;;;;4991014;28;20050;-76
2022/01/23 14:40:58;;;;;;;8.07;5.18;;;9.50;99.90;;;;;;4991130;28;20097;-82
2022/01/23 14:43:42;;;;;;;11.70;6.95;;;9.70;99.90;;;;;;4990615;28;20037;-81
2022/01/23 14:46:10;;;;;;;13.07;5.85;;;9.70;99.90;;;;;;4991215;28;20114;-78
2022/01/23 14:48:45;;;;;;;14.63;5.28;;;9.80;99.90;;;;;;5005538;28;20026;-79
2022/01/23 14:51:15;;;;;;;11.30;5.00;;;9.80;99.90;;;;;;5011883;28;20355;-77
2022/01/23 14:53:41;;;;;;;12.57;4.63;;;9.80;99.90;;;;;;5007977;28;20088;-77
2022/01/23 14:56:10;;;;;;;12.35;5.50;;;9.70;99.90;;;;;;4994026;28;20037;-77
2022/01/23 14:58:37;;;;;;;9.35;4.55;;;9.80;99.90;;;;;;4993243;28;20038;-78
2022/01/23 15:01:07;;;;;;;10.60;5.40;;;9.80;99.90;;;;;;4993833;28;20435;-78
2022/01/23 15:03:33;;;;;;;7.10;4.88;;;9.80;99.90;;;;;;5012073;28;20026;-79
2022/01/23 15:06:02;;;;;;;8.80;5.10;;;9.80;99.90;;;;;;5011927;28;20441;-79
2022/01/23 15:08:29;;;;;;;12.10;5.70;;;9.90;99.90;;;;;;5011491;28;20038;-79
2022/01/23 15:10:59;;;;;;;10.82;4.88;;;9.80;99.90;;;;;;4995935;28;20535;-78
2022/01/23 15:13:28;;;;;;;10.50;5.72;;;9.90;99.90;;;;;;4978239;28;20092;-78
2022/01/23 15:15:55;;;;;;;8.00;5.07;;;9.90;99.90;;;;;;4990590;28;21893;-82
2022/01/23 15:18:21;;;;;;;8.55;5.50;;;9.80;99.90;;;;;;4983231;28;20116;-81
2022/01/23 15:20:48;;;;;;;6.45;4.45;;;9.70;99.90;;;;;;4991753;28;20041;-77
2022/01/23 15:23:15;;;;;;;6.95;4.35;;;9.60;99.90;;;;;;4974134;28;20195;-77
2022/01/23 15:25:42;;;;;;;6.57;4.15;;;9.50;99.90;;;;;;4974952;28;20459;-77
2022/01/23 15:28:09;;;;;;;7.00;4.90;;;9.40;99.90;;;;;;4975502;28;20091;-75
2022/01/23 15:30:38;;;;;;;9.77;5.03;;;9.40;99.90;;;;;;4991832;28;20056;-76
2022/01/23 15:33:10;;;;;;;12.00;5.18;;;9.50;99.90;;;;;;4999471;28;20449;-76
2022/01/23 15:35:46;;;;;;;9.40;5.25;;;9.50;99.90;;;;;;5001710;28;20037;-75
2022/01/23 15:38:12;;;;;;;10.05;5.13;;;9.60;99.90;;;;;;5000544;28;20031;-76
2022/01/23 15:40:38;;;;;;;8.18;4.75;;;9.60;99.90;;;;;;4996933;28;20050;-77
2022/01/23 15:43:04;;;;;;;12.95;6.20;;;9.70;99.90;;;;;;4997574;28;20041;-75
2022/01/23 15:45:30;;;;;;;21.23;8.43;;;9.70;99.90;;;;;;5016009;28;20415;-75
2022/01/23 15:47:55;;;;;;;17.85;7.80;;;9.50;99.90;;;;;;4998531;28;20472;-77
2022/01/23 15:50:21;;;;;;;10.82;6.13;;;9.60;99.90;;;;;;4995531;28;20360;-76
2022/01/23 15:52:48;;;;;;;10.23;6.60;;;9.40;99.90;;;;;;5014480;28;20054;-77
2022/01/23 15:55:16;;;;;;;15.45;6.68;;;9.50;99.90;;;;;;4997422;28;20490;-74
2022/01/23 15:57:41;;;;;;;10.33;7.00;;;9.50;99.90;;;;;;4995668;28;20037;-73
2022/01/23 16:00:10;;;;;;;16.02;7.53;;;9.50;99.90;;;;;;4997130;28;20030;-75
2022/01/23 16:02:36;;;;;;;11.18;6.72;;;9.50;99.90;;;;;;5014189;28;20034;-76
2022/01/23 16:05:03;;;;;;;10.98;6.95;;;9.50;99.90;;;;;;4996595;28;20038;-76
2022/01/23 16:07:28;;;;;;;12.05;7.78;;;9.60;99.90;;;;;;4994419;28;20034;-77
2022/01/23 16:09:54;;;;;;;9.70;5.70;;;9.70;99.90;;;;;;5013536;28;20092;-77
2022/01/23 16:12:20;;;;;;;10.57;5.35;;;9.60;99.90;;;;;;5014697;28;20096;-75
2022/01/23 16:14:45;;;;;;;13.80;7.43;;;9.60;99.90;;;;;;5013170;28;20030;-76
2022/01/23 16:17:11;;;;;;;53.97;19.10;;;9.50;99.90;;;;;;5014666;28;20030;-77
2022/01/23 16:19:37;;;;;;;23.20;8.40;;;9.50;99.90;;;;;;4997979;28;20038;-76
2022/01/23 16:22:05;;;;;;;7.80;4.63;;;9.50;99.90;;;;;;4996476;28;20475;-75
2022/01/23 16:24:31;;;;;;;8.63;4.70;;;9.40;99.90;;;;;;5013828;28;20022;-77
2022/01/23 16:26:57;;;;;;;7.93;4.78;;;9.40;99.90;;;;;;5012437;28;20057;-73
2022/01/23 16:29:25;;;;;;;8.35;4.45;;;9.50;99.90;;;;;;5013996;28;20057;-74
2022/01/23 16:31:54;;;;;;;6.10;4.35;;;9.50;99.90;;;;;;5013798;28;20045;-74
2022/01/23 16:34:19;;;;;;;;;;;9.40;99.90;;;;;;4996476;28;20034;-76
2022/01/23 16:36:45;;;;;;;6.95;4.78;;;9.50;99.90;;;;;;4995840;28;19988;-75
2022/01/23 16:39:14;;;;;;;8.82;4.57;;;9.60;99.90;;;;;;4996500;28;20515;-75